Time;durP1;ratioP1;P1;durP2;ratioP2;P2;SDS_P1;SDS_P2;PMS_P1;PMS_P2;Temp;Humidity;BMP_temperature;BMP_pressure;BME280_temperature;BME280_humidity;BME280_pressure;Samples;Min_cycle;Max_cycle;Signal;HPM_P1;HPM_P2
2022/05/28 00:01:14;;;;;;;0.40;0.40;;;11.40;99.90;;;;;;4961040;28;20053;-72
2022/05/28 00:03:42;;;;;;;0.77;0.77;;;11.30;99.90;;;;;;4961425;28;20054;-73
2022/05/28 00:06:29;;;;;;;0.40;0.40;;;11.30;99.90;;;;;;4961074;28;20464;-71
2022/05/28 00:08:56;;;;;;;0.40;0.40;;;11.30;99.90;;;;;;4961357;28;20050;-73
2022/05/28 00:11:44;;;;;;;0.40;0.40;;;11.20;99.90;;;;;;4977647;28;20038;-71
2022/05/28 00:14:10;;;;;;;0.50;0.50;;;11.20;99.90;;;;;;4977733;28;20042;-72
2022/05/28 00:16:36;;;;;;;0.95;0.70;;;11.20;99.90;;;;;;4977624;28;20047;-73
2022/05/28 00:19:03;;;;;;;0.73;0.73;;;11.30;99.90;;;;;;4977620;28;20050;-73
2022/05/28 00:21:29;;;;;;;0.50;0.50;;;11.30;99.90;;;;;;4977222;28;20050;-72
2022/05/28 00:23:55;;;;;;;0.40;0.40;;;11.30;99.90;;;;;;4960971;28;20125;-72
2022/05/28 00:26:20;;;;;;;0.98;0.50;;;11.30;99.90;;;;;;4960710;28;20046;-72
2022/05/28 00:28:46;;;;;;;0.40;0.40;;;11.20;99.90;;;;;;4960342;28;20047;-72
2022/05/28 00:31:13;;;;;;;0.40;0.40;;;11.20;99.90;;;;;;4977530;28;20050;-72
2022/05/28 00:33:38;;;;;;;0.50;0.50;;;11.30;99.90;;;;;;4960130;28;20907;-73
2022/05/28 00:36:08;;;;;;;0.40;0.40;;;11.20;99.90;;;;;;4961178;28;20055;-71
2022/05/28 00:38:34;;;;;;;0.40;0.40;;;11.20;99.90;;;;;;4960700;28;20058;-73
2022/05/28 00:41:00;;;;;;;1.15;1.15;;;11.20;99.90;;;;;;4960518;28;20039;-73
2022/05/28 00:43:27;;;;;;;0.47;0.47;;;11.10;99.90;;;;;;4960385;28;20141;-73
2022/05/28 00:46:00;;;;;;;0.52;0.52;;;11.10;99.90;;;;;;4977004;28;20077;-72
2022/05/28 00:48:29;;;;;;;0.50;0.50;;;11.10;99.90;;;;;;4977503;28;20101;-74
2022/05/28 00:50:56;;;;;;;0.85;0.85;;;11.10;99.90;;;;;;4960109;28;20065;-73
2022/05/28 00:53:23;;;;;;;0.60;0.60;;;11.00;99.90;;;;;;4977198;28;20046;-73
2022/05/28 00:55:48;;;;;;;0.40;0.40;;;10.90;99.90;;;;;;4976916;28;20102;-72
2022/05/28 00:58:14;;;;;;;0.40;0.40;;;10.80;99.90;;;;;;4944293;28;20047;-72
2022/05/28 01:00:41;;;;;;;0.40;0.40;;;10.70;99.90;;;;;;4959683;28;20039;-72
2022/05/28 01:03:35;;;;;;;0.40;0.40;;;10.70;99.90;;;;;;4977092;28;20061;-73
2022/05/28 01:06:18;;;;;;;2.38;1.60;;;10.90;99.90;;;;;;4959898;28;20042;-71
2022/05/28 01:08:52;;;;;;;1.13;1.07;;;10.60;99.90;;;;;;4975901;28;20046;-72
2022/05/28 01:11:35;;;;;;;0.50;0.50;;;10.50;99.90;;;;;;4943963;28;20392;-73
2022/05/28 01:14:29;;;;;;;0.40;0.40;;;10.50;99.90;;;;;;4960111;28;20046;-72
2022/05/28 01:17:00;;;;;;;0.40;0.40;;;10.40;99.90;;;;;;4976560;28;20053;-73
2022/05/28 01:19:41;;;;;;;5.10;0.60;;;10.40;99.90;;;;;;4959878;28;20061;-73
2022/05/28 01:22:29;;;;;;;0.40;0.40;;;10.30;99.90;;;;;;4959680;28;20051;-72
2022/05/28 01:25:11;;;;;;;0.50;0.50;;;10.30;99.90;;;;;;4976641;28;20349;-73
2022/05/28 01:27:44;;;;;;;0.40;0.40;;;10.30;99.90;;;;;;4960787;28;20054;-72
2022/05/28 01:30:13;;;;;;;0.60;0.60;;;10.30;99.90;;;;;;4975725;28;20062;-71
2022/05/28 01:32:41;;;;;;;0.40;0.40;;;10.30;99.90;;;;;;4926778;28;20058;-74
2022/05/28 01:35:11;;;;;;;0.40;0.40;;;10.40;99.90;;;;;;4976339;28;20050;-73
2022/05/28 01:37:38;;;;;;;2.65;1.17;;;10.30;99.90;;;;;;4976449;28;20047;-72
2022/05/28 01:40:10;;;;;;;0.40;0.40;;;10.40;99.90;;;;;;4975981;28;20468;-74
2022/05/28 01:42:39;;;;;;;13.35;1.50;;;10.30;99.90;;;;;;4959261;28;20125;-72
2022/05/28 01:45:06;;;;;;;0.40;0.40;;;10.30;99.90;;;;;;4976571;28;20046;-73
2022/05/28 01:47:33;;;;;;;0.50;0.50;;;10.20;99.90;;;;;;4976097;28;20053;-74
2022/05/28 01:50:01;;;;;;;0.40;0.40;;;10.20;99.90;;;;;;4976033;28;20126;-73
2022/05/28 01:52:28;;;;;;;0.40;0.40;;;10.20;99.90;;;;;;4975872;28;20046;-73
2022/05/28 01:54:56;;;;;;;0.40;0.40;;;10.30;99.90;;;;;;4975892;28;20058;-72
2022/05/28 01:57:22;;;;;;;3.90;2.70;;;10.20;99.90;;;;;;4976115;28;20117;-73
2022/05/28 01:59:48;;;;;;;0.40;0.40;;;10.20;99.90;;;;;;4942861;28;20047;-72
2022/05/28 02:02:15;;;;;;;0.40;0.40;;;10.20;99.90;;;;;;4975833;28;20130;-71
2022/05/28 02:04:43;;;;;;;0.40;0.40;;;10.20;99.90;;;;;;4943486;28;20094;-72
2022/05/28 02:07:10;;;;;;;1.85;1.08;;;10.20;99.90;;;;;;4975080;28;20055;-73
2022/05/28 02:09:39;;;;;;;0.73;0.73;;;10.10;99.90;;;;;;4975672;28;20054;-73
2022/05/28 02:12:11;;;;;;;0.40;0.40;;;10.20;99.90;;;;;;4975193;28;20361;-73
2022/05/28 02:15:10;;;;;;;0.40;0.40;;;10.10;99.90;;;;;;4975949;28;20055;-73
2022/05/28 02:17:56;;;;;;;0.40;0.40;;;10.20;99.90;;;;;;4971067;28;20055;-73
2022/05/28 02:20:43;;;;;;;0.60;0.60;;;10.00;99.90;;;;;;4975766;28;20487;-73
2022/05/28 02:23:18;;;;;;;0.88;0.82;;;10.00;99.90;;;;;;4975683;28;20051;-72
2022/05/28 02:26:04;;;;;;;0.40;0.40;;;9.90;99.90;;;;;;4975908;28;20043;-73
2022/05/28 02:28:33;;;;;;;0.40;0.40;;;9.90;99.90;;;;;;4942721;28;20134;-73
2022/05/28 02:31:02;;;;;;;1.00;0.95;;;9.90;99.90;;;;;;4958417;28;20075;-72
2022/05/28 02:33:32;;;;;;;0.50;0.50;;;9.90;99.90;;;;;;4959008;28;20463;-72
2022/05/28 02:35:58;;;;;;;0.40;0.40;;;9.80;99.90;;;;;;4975675;28;20050;-73
2022/05/28 02:38:24;;;;;;;0.40;0.40;;;9.80;99.90;;;;;;4974688;28;20057;-72
2022/05/28 02:40:49;;;;;;;0.50;0.50;;;9.80;99.90;;;;;;4975269;28;20530;-72
2022/05/28 02:43:15;;;;;;;0.40;0.40;;;9.80;99.90;;;;;;4959175;28;20053;-71
2022/05/28 02:45:41;;;;;;;0.40;0.40;;;9.90;99.90;;;;;;4942740;28;20141;-73
2022/05/28 02:48:07;;;;;;;0.60;0.60;;;9.90;99.90;;;;;;4975753;28;20058;-73
2022/05/28 02:50:33;;;;;;;0.50;0.50;;;9.90;99.90;;;;;;4975584;28;20069;-72
2022/05/28 02:52:59;;;;;;;0.68;0.68;;;10.00;99.90;;;;;;4975407;28;20058;-73
2022/05/28 02:55:25;;;;;;;0.40;0.40;;;10.00;99.90;;;;;;4975115;28;20043;-73
2022/05/28 02:57:51;;;;;;;0.40;0.40;;;10.10;99.90;;;;;;4975071;28;20109;-72
2022/05/28 03:00:17;;;;;;;2.15;1.25;;;10.20;99.90;;;;;;4975764;28;20129;-72
2022/05/28 03:02:44;;;;;;;0.40;0.40;;;10.20;99.90;;;;;;4975583;28;20061;-72
2022/05/28 03:05:15;;;;;;;5.00;1.52;;;10.20;99.90;;;;;;4975233;28;20065;-73
2022/05/28 03:07:41;;;;;;;0.40;0.40;;;10.20;99.90;;;;;;4975111;28;20127;-73
2022/05/28 03:10:07;;;;;;;0.50;0.50;;;10.20;99.90;;;;;;4975073;28;20046;-72
2022/05/28 03:12:33;;;;;;;0.80;0.80;;;10.10;99.90;;;;;;4977698;28;20499;-72
2022/05/28 03:14:58;;;;;;;0.40;0.40;;;10.00;99.90;;;;;;4978595;28;20047;-73
2022/05/28 03:17:24;;;;;;;0.40;0.40;;;10.00;99.90;;;;;;4978759;28;20035;-72
2022/05/28 03:19:49;;;;;;;0.40;0.40;;;10.00;99.90;;;;;;4962424;28;20050;-73
2022/05/28 03:22:15;;;;;;;0.40;0.40;;;10.00;99.90;;;;;;4961640;28;20082;-72
2022/05/28 03:24:40;;;;;;;1.20;0.93;;;10.00;99.90;;;;;;4978814;28;20057;-74
2022/05/28 03:27:06;;;;;;;1.02;1.02;;;9.90;99.90;;;;;;4978871;28;20054;-72
2022/05/28 03:29:32;;;;;;;4.00;0.68;;;9.90;99.90;;;;;;4978993;28;20054;-73
2022/05/28 03:31:57;;;;;;;0.93;0.93;;;9.90;99.90;;;;;;4978796;28;20038;-71
2022/05/28 03:34:23;;;;;;;0.40;0.40;;;9.90;99.90;;;;;;4945557;28;20043;-72
2022/05/28 03:36:48;;;;;;;0.57;0.57;;;9.90;99.90;;;;;;4978568;28;20043;-73
2022/05/28 03:39:14;;;;;;;0.63;0.63;;;9.90;99.90;;;;;;4978004;28;20054;-71
2022/05/28 03:41:40;;;;;;;0.50;0.50;;;9.90;99.90;;;;;;4978414;28;20051;-73
2022/05/28 03:44:06;;;;;;;0.82;0.82;;;9.90;99.90;;;;;;4978681;28;20101;-72
2022/05/28 03:46:35;;;;;;;0.50;0.50;;;10.00;99.90;;;;;;4961384;28;20126;-71
2022/05/28 03:49:05;;;;;;;1.20;1.20;;;10.00;99.90;;;;;;4978041;28;20089;-72
2022/05/28 03:51:31;;;;;;;0.40;0.40;;;10.10;99.90;;;;;;4958633;28;20133;-72
2022/05/28 03:53:57;;;;;;;0.77;0.77;;;10.10;99.90;;;;;;4977998;28;20133;-73
2022/05/28 03:56:27;;;;;;;0.40;0.40;;;10.20;99.90;;;;;;4978553;28;20043;-72
2022/05/28 03:58:53;;;;;;;1.13;1.13;;;10.30;99.90;;;;;;4977980;28;20046;-72
2022/05/28 04:01:18;;;;;;;1.17;0.55;;;10.30;99.90;;;;;;4960996;28;20046;-72
2022/05/28 04:03:44;;;;;;;0.40;0.40;;;10.40;99.90;;;;;;4960713;28;20189;-73
2022/05/28 04:06:10;;;;;;;1.40;1.30;;;10.30;99.90;;;;;;4977612;28;20078;-73
2022/05/28 04:08:36;;;;;;;0.47;0.47;;;10.20;99.90;;;;;;4961389;28;20043;-73
2022/05/28 04:11:02;;;;;;;4.35;0.60;;;10.20;99.90;;;;;;4961241;28;20043;-72
2022/05/28 04:13:27;;;;;;;0.40;0.40;;;10.10;99.90;;;;;;4960844;28;20125;-72
2022/05/28 04:15:53;;;;;;;0.52;0.52;;;10.00;99.90;;;;;;4960833;28;20043;-73
2022/05/28 04:18:19;;;;;;;0.45;0.45;;;10.00;99.90;;;;;;4977698;28;20045;-73
2022/05/28 04:20:44;;;;;;;1.13;0.73;;;9.90;99.90;;;;;;4977365;28;20039;-73
2022/05/28 04:23:10;;;;;;;0.75;0.75;;;9.90;99.90;;;;;;4977124;28;20058;-73
2022/05/28 04:25:36;;;;;;;0.98;0.70;;;9.90;99.90;;;;;;4961090;28;20043;-71
2022/05/28 04:28:02;;;;;;;0.40;0.40;;;9.90;99.90;;;;;;4960614;28;20474;-72
2022/05/28 04:30:27;;;;;;;0.40;0.40;;;10.00;99.90;;;;;;4977169;28;20066;-72
2022/05/28 04:32:53;;;;;;;0.40;0.40;;;10.00;99.90;;;;;;4977599;28;20043;-72
2022/05/28 04:35:18;;;;;;;0.40;0.40;;;10.00;99.90;;;;;;4977114;28;20493;-74
2022/05/28 04:37:44;;;;;;;0.88;0.52;;;10.10;99.90;;;;;;4977313;28;20473;-71
2022/05/28 04:40:10;;;;;;;0.80;0.60;;;10.20;99.90;;;;;;4977378;28;20383;-74
2022/05/28 04:42:36;;;;;;;0.50;0.50;;;10.30;99.90;;;;;;4960034;28;20065;-72
2022/05/28 04:45:03;;;;;;;0.40;0.40;;;10.30;99.90;;;;;;4960732;28;20039;-72
2022/05/28 04:47:29;;;;;;;0.40;0.40;;;10.40;99.90;;;;;;4976896;28;20448;-71
2022/05/28 04:49:54;;;;;;;2.30;0.70;;;10.50;99.90;;;;;;4977042;28;20101;-72
2022/05/28 04:52:21;;;;;;;1.55;1.20;;;10.60;99.90;;;;;;4976918;28;20053;-72
2022/05/28 04:54:47;;;;;;;5.20;1.55;;;10.80;99.90;;;;;;4976760;28;20097;-72
2022/05/28 04:57:12;;;;;;;0.40;0.40;;;10.90;99.90;;;;;;4977340;28;20051;-75
2022/05/28 04:59:38;;;;;;;0.40;0.40;;;11.00;99.90;;;;;;4944480;28;20054;-72
2022/05/28 05:02:06;;;;;;;1.58;1.48;;;11.10;99.90;;;;;;4976941;28;20347;-73
2022/05/28 05:04:31;;;;;;;0.40;0.40;;;11.10;99.90;;;;;;4976516;28;20047;-72
2022/05/28 05:06:57;;;;;;;0.55;0.55;;;11.10;99.90;;;;;;4976464;28;20455;-71
2022/05/28 05:09:22;;;;;;;0.50;0.50;;;11.00;99.90;;;;;;4977035;28;20047;-71
2022/05/28 05:11:48;;;;;;;0.40;0.40;;;11.00;99.90;;;;;;4977189;28;20054;-71
2022/05/28 05:14:13;;;;;;;0.47;0.47;;;11.00;99.90;;;;;;4959932;28;20110;-72
2022/05/28 05:16:39;;;;;;;0.40;0.40;;;11.10;99.90;;;;;;4959780;28;20042;-72
2022/05/28 05:19:04;;;;;;;0.57;0.57;;;11.10;99.90;;;;;;4973488;28;20050;-73
2022/05/28 05:21:30;;;;;;;0.60;0.60;;;11.20;99.90;;;;;;4976229;28;20054;-74
2022/05/28 05:23:56;;;;;;;0.40;0.40;;;11.30;99.90;;;;;;4975387;28;20146;-74
2022/05/28 05:26:22;;;;;;;0.40;0.40;;;11.40;99.90;;;;;;4976369;28;20054;-74
2022/05/28 05:28:48;;;;;;;0.50;0.50;;;12.20;99.90;;;;;;4976237;28;20062;-74
2022/05/28 05:31:14;;;;;;;0.52;0.52;;;12.70;99.90;;;;;;4976375;28;20129;-74
2022/05/28 05:33:40;;;;;;;1.98;0.60;;;12.90;99.90;;;;;;4975638;28;20466;-74
2022/05/28 05:36:06;;;;;;;0.30;0.30;;;13.20;99.90;;;;;;4975822;28;20364;-74
2022/05/28 05:38:32;;;;;;;0.45;0.45;;;13.30;99.90;;;;;;4976246;28;20117;-73
2022/05/28 05:40:57;;;;;;;0.75;0.73;;;13.10;99.90;;;;;;4943441;28;20145;-72
2022/05/28 05:43:23;;;;;;;0.70;0.70;;;13.10;99.90;;;;;;4976231;28;20038;-72
2022/05/28 05:45:57;;;;;;;2.30;1.10;;;13.10;99.90;;;;;;4976183;28;20050;-73
2022/05/28 05:48:23;;;;;;;0.30;0.30;;;13.10;99.90;;;;;;4976037;28;20057;-72
2022/05/28 05:50:49;;;;;;;0.40;0.40;;;13.20;99.90;;;;;;4976063;28;20117;-73
2022/05/28 05:53:16;;;;;;;0.40;0.40;;;13.30;99.90;;;;;;4975997;28;20051;-73
2022/05/28 05:55:42;;;;;;;0.70;0.70;;;13.60;99.90;;;;;;4975823;28;20051;-73
2022/05/28 05:58:08;;;;;;;0.40;0.40;;;13.70;99.90;;;;;;4959611;28;20058;-72
2022/05/28 06:00:34;;;;;;;0.30;0.30;;;14.30;99.90;;;;;;4959477;28;20050;-74
2022/05/28 06:02:59;;;;;;;0.93;0.93;;;15.30;99.90;;;;;;4975558;28;20043;-73
2022/05/28 06:05:25;;;;;;;0.30;0.30;;;15.90;99.90;;;;;;4959205;28;20065;-73
2022/05/28 06:07:50;;;;;;;0.47;0.47;;;16.20;99.90;;;;;;4976185;28;20050;-72
2022/05/28 06:10:16;;;;;;;0.50;0.50;;;16.50;99.90;;;;;;4959528;28;20062;-73
2022/05/28 06:12:42;;;;;;;0.38;0.35;;;16.40;99.90;;;;;;4975878;28;20043;-74
2022/05/28 06:15:09;;;;;;;0.40;0.40;;;16.10;99.90;;;;;;4975497;28;20150;-74
2022/05/28 06:17:36;;;;;;;0.30;0.30;;;15.80;99.90;;;;;;4975787;28;20061;-73
2022/05/28 06:20:04;;;;;;;0.30;0.30;;;15.30;99.90;;;;;;4975720;28;20105;-72
2022/05/28 06:22:29;;;;;;;0.85;0.75;;;14.90;99.90;;;;;;4975641;28;20086;-74
2022/05/28 06:24:55;;;;;;;0.38;0.38;;;14.50;99.90;;;;;;4958969;28;20078;-72
2022/05/28 06:27:21;;;;;;;0.40;0.40;;;14.20;99.90;;;;;;4975500;28;20110;-73
2022/05/28 06:29:46;;;;;;;0.40;0.40;;;14.00;99.90;;;;;;4975511;28;20450;-72
2022/05/28 06:32:12;;;;;;;2.72;0.65;;;14.80;99.90;;;;;;4975505;28;20134;-72
2022/05/28 06:34:37;;;;;;;0.40;0.40;;;15.00;99.90;;;;;;4975492;28;20134;-75
2022/05/28 06:37:07;;;;;;;0.30;0.30;;;15.00;99.90;;;;;;4976097;28;20106;-74
2022/05/28 06:39:34;;;;;;;0.85;0.73;;;14.70;99.90;;;;;;4975490;28;20130;-74
2022/05/28 06:41:59;;;;;;;0.30;0.30;;;14.20;99.90;;;;;;4974500;28;20134;-73
2022/05/28 06:44:26;;;;;;;0.30;0.30;;;13.70;99.90;;;;;;4975482;28;20137;-74
2022/05/28 06:46:51;;;;;;;0.30;0.30;;;13.40;99.90;;;;;;4978691;28;20097;-74
2022/05/28 06:49:17;;;;;;;1.40;0.82;;;14.00;99.90;;;;;;4979778;28;20486;-74
2022/05/28 06:51:44;;;;;;;0.22;0.22;;;15.40;99.90;;;;;;4976429;28;20078;-73
2022/05/28 06:54:10;;;;;;;0.20;0.20;;;16.30;99.90;;;;;;4962401;28;20455;-75
2022/05/28 06:56:35;;;;;;;0.40;0.40;;;16.70;99.90;;;;;;4962621;28;20047;-74
2022/05/28 06:59:01;;;;;;;0.30;0.30;;;16.20;99.90;;;;;;4962242;28;20407;-74
2022/05/28 07:01:26;;;;;;;0.30;0.30;;;15.80;99.90;;;;;;4961840;28;20077;-72
2022/05/28 07:03:52;;;;;;;0.40;0.40;;;15.90;99.90;;;;;;4979057;28;20038;-73
2022/05/28 07:06:19;;;;;;;0.20;0.20;;;16.10;99.90;;;;;;4962897;28;20129;-74
2022/05/28 07:08:45;;;;;;;0.55;0.38;;;15.70;99.90;;;;;;4979263;28;20061;-73
2022/05/28 07:11:12;;;;;;;0.47;0.47;;;15.40;99.90;;;;;;4979022;28;20043;-72
2022/05/28 07:13:38;;;;;;;0.82;0.82;;;15.00;99.90;;;;;;4961663;28;20098;-72
2022/05/28 07:16:05;;;;;;;0.30;0.30;;;14.70;99.90;;;;;;4961914;28;20039;-73
2022/05/28 07:18:35;;;;;;;0.35;0.35;;;14.40;99.90;;;;;;4979581;28;20137;-74
2022/05/28 07:21:01;;;;;;;0.50;0.50;;;14.30;99.90;;;;;;4978987;28;20046;-73
2022/05/28 07:23:28;;;;;;;3.50;0.57;;;14.30;99.90;;;;;;4978688;28;20054;-73
2022/05/28 07:26:11;;;;;;;0.40;0.40;;;14.40;99.90;;;;;;4961875;28;20050;-72
2022/05/28 07:28:39;;;;;;;0.50;0.50;;;14.30;99.90;;;;;;4978343;28;20042;-72
2022/05/28 07:31:07;;;;;;;0.70;0.50;;;14.30;99.90;;;;;;4959150;29;20287;-73
2022/05/28 07:33:35;;;;;;;0.35;0.35;;;14.30;99.90;;;;;;4959250;29;20039;-73
2022/05/28 07:36:02;;;;;;;0.93;0.93;;;14.40;99.90;;;;;;4942590;29;20120;-74
2022/05/28 07:38:32;;;;;;;0.30;0.30;;;14.80;99.90;;;;;;4942304;29;20050;-74
2022/05/28 07:41:02;;;;;;;0.40;0.40;;;14.80;99.90;;;;;;4958905;29;20062;-72
2022/05/28 07:43:28;;;;;;;0.30;0.30;;;14.70;99.90;;;;;;4926487;29;20130;-74
2022/05/28 07:45:53;;;;;;;2.45;1.58;;;14.70;99.90;;;;;;4942364;29;20134;-73
2022/05/28 07:48:19;;;;;;;0.50;0.50;;;14.90;99.90;;;;;;4942484;29;20085;-72
2022/05/28 07:50:45;;;;;;;0.40;0.40;;;15.70;99.90;;;;;;4959202;29;20449;-74
2022/05/28 07:53:11;;;;;;;0.30;0.30;;;16.10;99.90;;;;;;4959019;29;20085;-72
2022/05/28 07:55:36;;;;;;;0.30;0.30;;;15.80;99.90;;;;;;4958556;29;20066;-73
2022/05/28 07:58:10;;;;;;;0.30;0.30;;;16.10;99.90;;;;;;4957970;28;20035;-73
2022/05/28 08:00:42;;;;;;;0.50;0.50;;;17.30;99.90;;;;;;4958727;29;20165;-73
2022/05/28 08:03:08;;;;;;;0.20;0.20;;;18.20;99.90;;;;;;4942433;29;20051;-73
2022/05/28 08:05:35;;;;;;;1.45;0.93;;;17.80;99.90;;;;;;4958673;29;20078;-73
2022/05/28 08:08:01;;;;;;;0.30;0.30;;;16.60;99.90;;;;;;4941960;29;20062;-74
2022/05/28 08:10:27;;;;;;;2.72;0.65;;;15.90;99.90;;;;;;4958274;29;20043;-74
2022/05/28 08:13:26;;;;;;;0.20;0.20;;;15.50;99.90;;;;;;4958521;29;20047;-74
2022/05/28 08:16:49;;;;;;;1.58;1.48;;;16.00;99.90;;;;;;4958339;29;20464;-74
2022/05/28 08:19:28;;;;;;;0.93;0.90;;;16.30;99.90;;;;;;4879787;29;20051;-74
2022/05/28 08:24:46;;;;;;;0.20;0.20;;;16.20;99.90;;;;;;4958198;29;20047;-73
2022/05/28 08:27:14;;;;;;;0.43;0.43;;;16.20;99.90;;;;;;4941448;29;20043;-74
2022/05/28 08:29:50;;;;;;;;;;;;;;;;;;;;;
2022/05/28 08:32:21;;;;;;;0.32;0.32;;;16.60;99.90;;;;;;4977774;28;20054;-74
2022/05/28 08:34:48;;;;;;;0.75;0.75;;;16.30;99.90;;;;;;4975413;28;20050;-74
2022/05/28 08:37:21;;;;;;;0.30;0.30;;;15.90;99.90;;;;;;4977211;28;20118;-74
2022/05/28 08:39:49;;;;;;;1.65;1.08;;;15.70;99.90;;;;;;4977045;28;20038;-74
2022/05/28 08:42:17;;;;;;;0.85;0.85;;;15.60;99.90;;;;;;4977316;28;20039;-73
2022/05/28 08:45:02;;;;;;;0.40;0.40;;;15.30;99.90;;;;;;4974715;28;20043;-72
2022/05/28 08:47:33;;;;;;;0.40;0.40;;;15.00;99.90;;;;;;4960095;28;20062;-73
2022/05/28 08:49:59;;;;;;;0.30;0.30;;;15.00;99.90;;;;;;4960413;28;20046;-72
2022/05/28 08:52:43;;;;;;;0.43;0.43;;;15.00;99.90;;;;;;4928630;28;20348;-72
2022/05/28 08:55:21;;;;;;;3.60;0.98;;;15.80;99.90;;;;;;4960029;28;20058;-74
2022/05/28 08:58:07;;;;;;;0.95;0.80;;;16.50;99.90;;;;;;4977221;28;20059;-74
2022/05/28 09:00:38;;;;;;;0.40;0.40;;;16.30;99.90;;;;;;4976669;28;20035;-74
2022/05/28 09:03:18;;;;;;;0.30;0.30;;;16.20;99.90;;;;;;4976961;28;20042;-75
2022/05/28 09:06:00;;;;;;;1.15;1.05;;;16.00;99.90;;;;;;4975976;28;20061;-73
2022/05/28 09:08:32;;;;;;;0.30;0.30;;;16.00;99.90;;;;;;4959871;28;20122;-74
2022/05/28 09:11:21;;;;;;;0.30;0.30;;;15.90;99.90;;;;;;4976751;28;20114;-73
2022/05/28 09:13:50;;;;;;;0.30;0.30;;;15.80;99.90;;;;;;4976128;28;20058;-74
2022/05/28 09:16:35;;;;;;;2.38;0.93;;;15.80;99.90;;;;;;4959490;28;20038;-74
2022/05/28 09:19:08;;;;;;;0.70;0.70;;;15.50;99.90;;;;;;4959659;28;20051;-73
2022/05/28 09:21:34;;;;;;;0.28;0.28;;;15.60;99.90;;;;;;4976486;28;20042;-73
2022/05/28 09:24:09;;;;;;;0.85;0.75;;;16.30;99.90;;;;;;4977074;28;20047;-75
2022/05/28 09:26:40;;;;;;;0.20;0.20;;;16.70;99.90;;;;;;4976964;28;20360;-75
2022/05/28 09:29:19;;;;;;;1.23;1.15;;;16.60;99.90;;;;;;4976298;28;20055;-73
2022/05/28 09:31:58;;;;;;;0.30;0.30;;;16.20;99.90;;;;;;4976257;28;20102;-75
2022/05/28 09:34:36;;;;;;;0.88;0.88;;;15.90;99.90;;;;;;4959371;28;20146;-73
2022/05/28 09:37:15;;;;;;;0.40;0.40;;;15.80;99.90;;;;;;4976176;28;20043;-72
2022/05/28 09:39:57;;;;;;;1.88;0.57;;;15.70;99.90;;;;;;4959472;28;20082;-73
2022/05/28 09:42:40;;;;;;;1.17;1.07;;;15.80;99.90;;;;;;4976199;28;20054;-73
2022/05/28 09:45:20;;;;;;;0.20;0.20;;;15.80;99.90;;;;;;4959272;28;20102;-73
2022/05/28 09:47:51;;;;;;;0.20;0.20;;;15.60;99.90;;;;;;4975979;28;20463;-73
2022/05/28 09:50:50;;;;;;;18.88;0.88;;;15.70;99.90;;;;;;4958853;28;20043;-75
2022/05/28 09:56:36;;;;;;;0.30;0.30;;;16.00;99.90;;;;;;4959548;28;20458;-73
2022/05/28 09:59:43;;;;;;;3.33;1.02;;;16.30;99.90;;;;;;4975822;28;20498;-74
2022/05/28 10:02:14;;;;;;;1.25;0.75;;;16.30;99.90;;;;;;4879276;29;20041;-73
2022/05/28 10:04:51;;;;;;;0.30;0.30;;;16.00;99.90;;;;;;4946280;28;20069;-74
2022/05/28 10:07:37;;;;;;;0.43;0.43;;;15.90;99.90;;;;;;4959014;28;20051;-73
2022/05/28 10:10:25;;;;;;;0.70;0.32;;;15.50;99.90;;;;;;4976005;28;20046;-74
2022/05/28 10:12:52;;;;;;;0.65;0.65;;;15.30;99.90;;;;;;4958972;28;20058;-75
2022/05/28 10:15:28;;;;;;;0.60;0.60;;;15.10;99.90;;;;;;4975586;28;20057;-74
2022/05/28 10:17:57;;;;;;;0.40;0.40;;;15.00;99.90;;;;;;4975132;28;20051;-73
2022/05/28 10:20:23;;;;;;;1.35;1.20;;;15.40;99.90;;;;;;4978013;28;20476;-73
2022/05/28 10:22:52;;;;;;;0.30;0.30;;;15.60;99.90;;;;;;4965423;28;20078;-74
2022/05/28 10:25:26;;;;;;;0.40;0.40;;;15.60;99.90;;;;;;4982294;28;20053;-73
2022/05/28 10:27:53;;;;;;;0.30;0.30;;;15.40;99.90;;;;;;4981830;28;20050;-75
2022/05/28 10:30:34;;;;;;;0.40;0.40;;;15.20;99.90;;;;;;4982954;28;20472;-74
2022/05/28 10:33:05;;;;;;;0.30;0.30;;;15.20;99.90;;;;;;4982181;28;20471;-74
2022/05/28 10:35:31;;;;;;;0.35;0.35;;;15.30;99.90;;;;;;4982021;28;20382;-73
2022/05/28 10:38:14;;;;;;;0.68;0.68;;;15.60;99.90;;;;;;4965365;28;20058;-73
2022/05/28 10:40:54;;;;;;;0.30;0.30;;;16.00;99.90;;;;;;4965099;28;20057;-75
2022/05/28 10:43:38;;;;;;;0.38;0.38;;;16.10;99.90;;;;;;4965968;28;20352;-74
2022/05/28 10:46:14;;;;;;;7.22;0.50;;;16.00;99.90;;;;;;4982392;28;20038;-73
2022/05/28 10:49:13;;;;;;;0.35;0.35;;;15.80;99.90;;;;;;4982105;28;20084;-74
2022/05/28 10:52:08;;;;;;;3.03;0.85;;;15.80;99.90;;;;;;4982387;28;20121;-72
2022/05/28 10:54:56;;;;;;;1.15;0.93;;;15.70;99.90;;;;;;4965372;28;20082;-72
2022/05/28 10:57:54;;;;;;;2.13;0.85;;;15.70;99.40;;;;;;4981638;28;20383;-73
2022/05/28 11:00:34;;;;;;;1.85;1.30;;;15.60;99.40;;;;;;4965256;28;20129;-74
2022/05/28 11:03:23;;;;;;;0.30;0.30;;;16.00;99.10;;;;;;4981965;28;20078;-73
2022/05/28 11:06:23;;;;;;;0.38;0.38;;;16.40;98.20;;;;;;4981872;28;20418;-74
2022/05/28 11:09:08;;;;;;;0.70;0.70;;;16.50;97.40;;;;;;4982160;28;20460;-73
2022/05/28 11:11:43;;;;;;;1.15;0.75;;;16.40;97.20;;;;;;4981933;28;20051;-74
2022/05/28 11:14:38;;;;;;;0.63;0.63;;;16.40;97.00;;;;;;4964686;28;20065;-74
2022/05/28 11:17:21;;;;;;;0.90;0.70;;;16.50;98.10;;;;;;4980896;28;20050;-74
2022/05/28 11:20:10;;;;;;;1.05;0.98;;;17.00;98.00;;;;;;4965141;28;20065;-73
2022/05/28 11:22:39;;;;;;;0.30;0.30;;;17.10;96.30;;;;;;4981842;28;20269;-73
2022/05/28 11:25:28;;;;;;;0.22;0.22;;;17.00;96.40;;;;;;4982082;28;20105;-73
2022/05/28 11:28:22;;;;;;;0.47;0.47;;;16.80;95.80;;;;;;4965082;28;20050;-74
2022/05/28 11:30:52;;;;;;;0.60;0.60;;;16.70;96.10;;;;;;4960527;28;20118;-72
2022/05/28 11:33:35;;;;;;;0.40;0.40;;;16.40;96.90;;;;;;4976961;28;20371;-74
2022/05/28 11:36:29;;;;;;;0.30;0.30;;;16.40;97.70;;;;;;4978561;28;20051;-73
2022/05/28 11:39:21;;;;;;;;;;;16.30;96.70;;;;;;4949441;28;20510;-73
2022/05/28 11:41:55;;;;;;;0.30;0.30;;;16.40;96.90;;;;;;4957942;28;19934;-75
2022/05/28 11:44:31;;;;;;;0.40;0.40;;;16.50;97.40;;;;;;4961682;28;20062;-74
2022/05/28 11:47:13;;;;;;;0.40;0.40;;;16.80;96.60;;;;;;4977377;28;20495;-74
2022/05/28 11:53:10;;;;;;;0.85;0.85;;;17.20;95.70;;;;;;4978426;28;20086;-72
2022/05/28 11:55:38;;;;;;;0.50;0.50;;;17.10;94.50;;;;;;4977747;28;20043;-73
2022/05/28 11:58:20;;;;;;;0.65;0.32;;;16.70;95.60;;;;;;4978201;28;20050;-72
2022/05/28 12:00:54;;;;;;;1.42;1.33;;;16.20;99.20;;;;;;4978250;28;20055;-73
2022/05/28 12:03:23;;;;;;;0.20;0.20;;;15.70;99.90;;;;;;4961464;28;20490;-72
2022/05/28 12:06:04;;;;;;;0.40;0.40;;;15.30;99.90;;;;;;4961003;28;20054;-74
2022/05/28 12:08:44;;;;;;;0.20;0.20;;;14.90;99.90;;;;;;4978013;28;20054;-74
2022/05/28 12:12:02;;;;;;;3.05;1.05;;;14.70;99.90;;;;;;4978180;28;20047;-73
2022/05/28 12:14:37;;;;;;;0.40;0.40;;;14.80;99.90;;;;;;4940212;28;20051;-72
2022/05/28 12:17:22;;;;;;;0.45;0.45;;;15.00;99.90;;;;;;4978099;28;20054;-74
2022/05/28 12:19:50;;;;;;;0.60;0.60;;;15.10;99.90;;;;;;4977688;28;20042;-73
2022/05/28 12:22:35;;;;;;;0.30;0.30;;;15.30;99.90;;;;;;4977738;28;20085;-72
2022/05/28 12:25:15;;;;;;;0.40;0.40;;;15.40;99.90;;;;;;4957762;28;20117;-72
2022/05/28 12:27:55;;;;;;;1.77;0.52;;;15.20;99.90;;;;;;4977523;28;20054;-72
2022/05/28 12:30:28;;;;;;;0.30;0.30;;;15.30;99.90;;;;;;4960285;28;20364;-72
2022/05/28 12:32:54;;;;;;;1.55;1.27;;;15.20;99.90;;;;;;4960652;28;20062;-73
2022/05/28 12:35:25;;;;;;;0.75;0.63;;;15.60;99.90;;;;;;4960385;28;20499;-74
2022/05/28 12:38:13;;;;;;;1.08;0.52;;;15.90;99.90;;;;;;4977443;28;20043;-74
2022/05/28 12:40:54;;;;;;;0.20;0.20;;;16.00;99.90;;;;;;4964298;28;20070;-73
2022/05/28 12:43:30;;;;;;;4.75;1.27;;;15.90;99.90;;;;;;4960150;28;20047;-73
2022/05/28 12:45:57;;;;;;;0.30;0.30;;;15.90;99.90;;;;;;4960508;28;20105;-74
2022/05/28 12:48:30;;;;;;;0.30;0.30;;;15.70;99.90;;;;;;4977404;28;20498;-74
2022/05/28 12:51:21;;;;;;;2.08;1.20;;;15.50;99.90;;;;;;4960097;28;20125;-73
2022/05/28 12:53:56;;;;;;;0.20;0.20;;;15.40;99.90;;;;;;4959988;28;20096;-72
2022/05/28 12:56:33;;;;;;;0.47;0.47;;;15.40;99.90;;;;;;4961126;28;20054;-73
2022/05/28 12:59:12;;;;;;;0.30;0.30;;;15.50;99.90;;;;;;4976941;28;20534;-72
2022/05/28 13:01:49;;;;;;;0.70;0.70;;;15.50;99.90;;;;;;4960168;28;20125;-73
2022/05/28 13:04:18;;;;;;;8.40;1.83;;;15.80;99.90;;;;;;4976741;28;20086;-72
2022/05/28 13:06:50;;;;;;;0.30;0.30;;;15.80;99.90;;;;;;4976817;28;20043;-75
2022/05/28 13:09:20;;;;;;;0.30;0.30;;;15.80;99.90;;;;;;4976860;28;20058;-74
2022/05/28 13:12:00;;;;;;;0.25;0.25;;;15.80;99.90;;;;;;4960255;28;20043;-73
2022/05/28 13:15:01;;;;;;;4.53;0.30;;;16.00;99.90;;;;;;4976775;28;20051;-73
2022/05/28 13:17:51;;;;;;;0.20;0.20;;;16.30;99.90;;;;;;4879749;29;20136;-73
2022/05/28 13:20:16;;;;;;;0.30;0.30;;;16.50;99.40;;;;;;4971845;28;20070;-73
2022/05/28 13:22:45;;;;;;;0.88;0.88;;;17.00;99.60;;;;;;4976534;28;20046;-73